Coastal Inspiration — CFN4970 — position and weather

sailwx.info

Track history (hours):
 
Tides and Currents Weather Stations Pressure Air Temp Water Temp Dewpoint Dewpoint Depression Visibility Wind Speed Wind Dir Waves Ship Positions

Coastal Inspiration

Last reported at 2017-Jan-20 19:33 UTC. Time now 2017-Jan-20 20:15 UTC.
Position N 49°03' W 123°24'.

Length 160 m; draft 6 m.

Type: Ship. MMSI: 316011408.

Date/timePositionNaut miles runAvg speedWind from/ knotsBaromVisibWave heightAir tempDewpointWater temp
2017-Jan-20 19:33N 49°03' W 123°24'1919.2
2017-Jan-20 18:33N 49°13' W 123°48'3 3.4
2017-Jan-20 17:33N 49°12' W 123°53'1817.4
2017-Jan-20 16:33N 49°07' W 123°27'1412.4
2017-Jan-20 15:24N 49°00' W 123°08'1315.0
2017-Jan-20 14:33N 49°05' W 123°26'1717.2
2017-Jan-20 13:33N 49°13' W 123°49'4 3.5
2017-Jan-20 12:23N 49°10' W 123°53'0 0.0
2017-Jan-20 11:05N 49°10' W 123°53'0 0.0
2017-Jan-20 10:28N 49°10' W 123°53'0 0.0
2017-Jan-20 09:28N 49°10' W 123°53'0 0.2
2017-Jan-20 08:33N 49°10' W 123°53'1716.4
2017-Jan-20 07:32N 49°07' W 123°28'1514.7
2017-Jan-20 06:32N 49°00' W 123°08'1212.1
2017-Jan-20 05:33N 49°04' W 123°25'1919.0
2017-Jan-20 04:33N 49°13' W 123°51'1 0.6
2017-Jan-20 03:34N 49°13' W 123°51'1817.8
2017-Jan-20 02:33N 49°06' W 123°26'1312.6
2017-Jan-20 01:31N 49°00' W 123°08'1212.7
2017-Jan-20 00:33N 49°04' W 123°26'1817.9
2017-Jan-19 23:33N 49°13' W 123°49'2 1.8
2017-Jan-19 22:33N 49°13' W 123°52'1817.8
2017-Jan-19 21:33N 49°06' W 123°26'1313.3
2017-Jan-19 20:32N 49°00' W 123°08'1212.1
2017-Jan-19 19:33N 49°04' W 123°25'1818.3
2017-Jan-19 18:33N 49°13' W 123°50'2 1.6
2017-Jan-19 17:33N 49°13' W 123°52'1817.7
2017-Jan-19 16:32N 49°06' W 123°26'1310.9
2017-Jan-19 15:20N 49°00' W 123°08'1114.9
2017-Jan-19 14:33N 49°04' W 123°25'1918.2
2017-Jan-19 13:33N 49°13' W 123°49'4 3.4
2017-Jan-19 12:16N 49°10' W 123°53'0 0.0
2017-Jan-19 11:16N 49°10' W 123°53'0 0.0
2017-Jan-19 10:28N 49°10' W 123°53'0 0.0
2017-Jan-19 09:27N 49°10' W 123°53'0 0.5
2017-Jan-19 08:33N 49°10' W 123°53'1717.0
2017-Jan-19 07:33N 49°07' W 123°28'1514.4
2017-Jan-19 06:33N 49°00' W 123°08'1212.3
2017-Jan-19 05:34N 49°04' W 123°26'1818.4
2017-Jan-19 04:33N 49°14' W 123°50'1 1.5
2017-Jan-19 03:33N 49°13' W 123°52'1817.9
2017-Jan-19 02:33N 49°06' W 123°26'1312.9
2017-Jan-19 01:32N 49°00' W 123°08'1212.5
2017-Jan-19 00:33N 49°04' W 123°26'1817.9
2017-Jan-18 23:33N 49°13' W 123°49'3 2.9
2017-Jan-18 22:33N 49°11' W 123°53'1817.9
2017-Jan-18 21:33N 49°06' W 123°27'1411.6
2017-Jan-18 20:22N 49°00' W 123°08'1315.7
2017-Jan-18 19:34N 49°04' W 123°26'1818.0
2017-Jan-18 18:34N 49°13' W 123°51'0 0.4
2017-Jan-18 17:33N 49°13' W 123°51'1817.9
2017-Jan-18 16:33N 49°06' W 123°26'1312.0
2017-Jan-18 15:27N 49°00' W 123°08'1213.7
2017-Jan-18 14:33N 49°04' W 123°26'1818.1
2017-Jan-18 13:33N 49°13' W 123°50'4 3.7
2017-Jan-18 12:33N 49°10' W 123°53'0 0.0
2017-Jan-18 11:33N 49°10' W 123°53'0 0.0
2017-Jan-18 10:32N 49°10' W 123°53'0 0.0
2017-Jan-18 09:32N 49°10' W 123°53'1 1.0
2017-Jan-18 08:34N 49°11' W 123°53'1918.5
2017-Jan-18 07:33N 49°06' W 123°26'1313.0
2017-Jan-18 06:33N 49°00' W 123°08'1313.2
2017-Jan-18 05:33N 49°05' W 123°27'1818.2
2017-Jan-18 04:33N 49°11' W 123°53'1 1.3
2017-Jan-18 03:33N 49°12' W 123°52'1818.3
2017-Jan-18 02:33N 49°06' W 123°26'1313.1
2017-Jan-18 01:33N 49°00' W 123°08'1312.7
2017-Jan-18 00:33N 49°04' W 123°26'1818.4
2017-Jan-17 23:33N 49°13' W 123°51'2 1.6
2017-Jan-17 22:33N 49°12' W 123°53'1918.6
2017-Jan-17 21:32N 49°06' W 123°25'1312.8
2017-Jan-17 20:32N 49°00' W 123°08'1212.3
2017-Jan-17 19:33N 49°04' W 123°26'1918.5
2017-Jan-17 18:33N 49°13' W 123°50'1 0.6
2017-Jan-17 17:33N 49°13' W 123°51'1817.9
2017-Jan-17 16:33N 49°06' W 123°26'1312.1
2017-Jan-17 15:29N 49°00' W 123°08'1112.4
2017-Jan-17 14:33N 49°03' W 123°25'1818.2
2017-Jan-17 13:33N 49°13' W 123°49'4 2.2
2017-Jan-17 11:28N 49°10' W 123°53'0 0.0
2017-Jan-17 10:28N 49°10' W 123°53'2 0.9
2017-Jan-17 08:33N 49°11' W 123°53'1817.7
2017-Jan-17 07:33N 49°07' W 123°27'1414.1
2017-Jan-17 06:33N 49°00' W 123°08'1212.0
2017-Jan-17 05:33N 49°03' W 123°26'1818.4
2017-Jan-17 04:33N 49°13' W 123°50'1 1.5
2017-Jan-17 03:33N 49°13' W 123°52'1817.9
2017-Jan-17 02:33N 49°06' W 123°26'1313.4
2017-Jan-17 01:33N 49°00' W 123°08'1212.0
2017-Jan-17 00:33N 49°04' W 123°25'1818.0
2017-Jan-16 23:33N 49°13' W 123°49'3 3.5
2017-Jan-16 22:33N 49°11' W 123°53'1817.5
2017-Jan-16 21:33N 49°06' W 123°27'1411.9
2017-Jan-16 20:22N 49°00' W 123°08'1215.3
2017-Jan-16 19:33N 49°04' W 123°26'1918.4
2017-Jan-16 18:33N 49°13' W 123°50'0 0.4
2017-Jan-16 17:32N 49°13' W 123°51'1818.3
2017-Jan-16 16:32N 49°06' W 123°25'1312.8
2017-Jan-16 15:32N 49°00' W 123°08'1111.4
2017-Jan-16 14:33N 49°04' W 123°24'1918.6
2017-Jan-16 13:33N 49°13' W 123°49'3 0.7
2017-Jan-16 08:33N 49°11' W 123°53'1717.2
2017-Jan-16 07:33N 49°07' W 123°28'1414.5
2017-Jan-16 06:33N 49°00' W 123°08'1111.4
2017-Jan-16 05:33N 49°04' W 123°25'2018.0
2017-Jan-16 04:28N 49°13' W 123°51'1 1.1
2017-Jan-16 03:28N 49°13' W 123°49'1717.9
2017-Jan-16 02:33N 49°06' W 123°26'1313.4
2017-Jan-16 01:33N 49°00' W 123°08'1312.5
2017-Jan-16 00:33N 49°04' W 123°26'1818.0
2017-Jan-15 23:33N 49°13' W 123°50'2 1.6
2017-Jan-15 22:25N 49°13' W 123°48'1618.4
2017-Jan-15 21:33N 49°06' W 123°26'1313.1
2017-Jan-15 20:33N 49°00' W 123°08'1312.7
2017-Jan-15 19:33N 49°04' W 123°26'1918.8
2017-Jan-15 18:32N 49°13' W 123°53'1 0.1
2017-Jan-15 03:26N 49°12' W 123°53'1718.9
2017-Jan-15 02:30N 49°06' W 123°28'1415.1
2017-Jan-15 01:33N 49°00' W 123°08'1211.9
2017-Jan-15 00:33N 49°04' W 123°25'2017.6
2017-Jan-14 23:25N 49°12' W 123°53'0 0.5
2017-Jan-14 22:29N 49°12' W 123°53'1718.5
2017-Jan-14 21:33N 49°07' W 123°28'1414.6
2017-Jan-14 20:33N 49°00' W 123°08'1111.2
2017-Jan-14 19:34N 49°03' W 123°24'2018.8
2017-Jan-14 18:30N 49°12' W 123°52'1 1.0
2017-Jan-14 17:34N 49°12' W 123°53'1818.1
2017-Jan-14 16:33N 49°06' W 123°27'1413.8
2017-Jan-14 15:33N 49°00' W 123°08'1111.2
2017-Jan-14 14:33N 49°04' W 123°24'2117.8
2017-Jan-14 13:24N 49°12' W 123°53'0 0.0
2017-Jan-14 08:28N 49°12' W 123°53'1819.1
2017-Jan-14 07:33N 49°06' W 123°28'1414.3
2017-Jan-14 06:33N 49°00' W 123°08'1111.1
2017-Jan-14 05:33N 49°03' W 123°24'1918.9
2017-Jan-14 04:33N 49°13' W 123°49'1 0.9
2017-Jan-14 03:25N 49°13' W 123°48'2 0.6
2017-Jan-13 23:33N 49°13' W 123°51'1 1.4
2017-Jan-13 22:33N 49°12' W 123°53'1918.6
2017-Jan-13 21:33N 49°06' W 123°26'1313.1
2017-Jan-13 20:33N 49°00' W 123°08'1110.9
2017-Jan-13 19:33N 49°03' W 123°24'2118.5
2017-Jan-13 18:25N 49°12' W 123°53'0 0.4
2017-Jan-13 17:33N 49°12' W 123°53'1818.1
2017-Jan-13 16:33N 49°06' W 123°27'1413.9
2017-Jan-13 15:33N 49°00' W 123°08'1212.2
2017-Jan-13 14:33N 49°04' W 123°26'2018.3
2017-Jan-13 13:29N 49°13' W 123°52'2 0.4
2017-Jan-13 08:27N 49°11' W 123°53'1618.3
2017-Jan-13 07:33N 49°07' W 123°29'1515.4
2017-Jan-13 06:33N 49°00' W 123°08'1312.2
2017-Jan-13 05:32N 49°04' W 123°26'17 8.0
2017-Jan-13 03:26N 49°13' W 123°48'1718.8
2017-Jan-13 02:33N 49°06' W 123°25'1312.5
2017-Jan-13 01:33N 49°00' W 123°08'1211.9
2017-Jan-13 00:33N 49°04' W 123°25'1919.1
2017-Jan-12 23:33N 49°13' W 123°50'2 2.5
2017-Jan-12 22:34N 49°11' W 123°53'1817.3
2017-Jan-12 21:32N 49°06' W 123°27'1414.3
2017-Jan-12 20:33N 49°00' W 123°08'1111.4
2017-Jan-12 19:33N 49°04' W 123°25'1919.3
2017-Jan-12 18:33N 49°13' W 123°50'2 2.2
2017-Jan-12 17:33N 49°12' W 123°53'1918.5
2017-Jan-12 16:33N 49°06' W 123°26'1313.3
2017-Jan-12 15:33N 49°00' W 123°08'1111.3
2017-Jan-12 14:33N 49°03' W 123°25'1918.8
2017-Jan-12 13:33N 49°13' W 123°49'4 4.4
2017-Jan-12 12:33N 49°10' W 123°53'0 0.0
2017-Jan-12 11:33N 49°10' W 123°53'0 0.1
2017-Jan-12 08:33N 49°10' W 123°53'1616.3
2017-Jan-12 07:33N 49°07' W 123°29'1515.1
2017-Jan-12 06:33N 49°00' W 123°08'1111.2
2017-Jan-12 05:34N 49°03' W 123°24'1919.2
2017-Jan-12 04:34N 49°13' W 123°50'1 0.6
2017-Jan-12 03:32N 49°13' W 123°50'1717.8
2017-Jan-12 02:34N 49°06' W 123°26'1313.1
2017-Jan-12 01:33N 49°00' W 123°08'1211.7
2017-Jan-12 00:33N 49°04' W 123°25'1918.7
2017-Jan-11 23:33N 49°13' W 123°50'3 2.8
2017-Jan-11 22:33N 49°12' W 123°53'1817.6
2017-Jan-11 21:32N 49°07' W 123°27'1414.3
2017-Jan-11 20:34N 49°00' W 123°08'1111.4
2017-Jan-11 19:33N 49°04' W 123°24'1918.6
2017-Jan-11 18:33N 49°13' W 123°50'2 2.4
2017-Jan-11 17:33N 49°12' W 123°53'1818.3
2017-Jan-11 16:33N 49°06' W 123°26'1313.5
2017-Jan-11 15:33N 49°00' W 123°08'1211.9
2017-Jan-11 14:31N 49°03' W 123°26'1818.9
2017-Jan-11 13:33N 49°13' W 123°50'4 3.6
2017-Jan-11 12:31N 49°10' W 123°53'0 0.0
2017-Jan-11 11:31N 49°10' W 123°53'0 0.0
2017-Jan-11 10:31N 49°10' W 123°53'1 0.3
2017-Jan-11 08:31N 49°10' W 123°53'1717.6
2017-Jan-11 07:32N 49°07' W 123°27'1412.6
2017-Jan-11 06:24N 49°00' W 123°08'1214.1
2017-Jan-11 05:33N 49°04' W 123°26'1918.3
2017-Jan-11 04:31N 49°13' W 123°51'1 1.0
2017-Jan-11 03:27N 49°13' W 123°50'1719.2
2017-Jan-11 02:33N 49°07' W 123°25'1311.9
2017-Jan-11 01:28N 49°00' W 123°08'1213.2
2017-Jan-11 00:33N 49°04' W 123°26'1918.0
2017-Jan-10 23:31N 49°13' W 123°51'2 1.9
2017-Jan-10 22:34N 49°12' W 123°53'1818.0
2017-Jan-10 21:32N 49°06' W 123°26'1413.8
2017-Jan-10 20:33N 49°00' W 123°08'  
Track history (hours):
 
Tides and Currents Weather Stations Pressure Air Temp Water Temp Dewpoint Dewpoint Depression Visibility Wind Speed Wind Dir Waves Ship Positions

Coastal Inspiration

Last reported at 2017-Jan-20 19:33 UTC. Time now 2017-Jan-20 20:15 UTC.
Position N 49°03' W 123°24'.

Length 160 m; draft 6 m.

Type: Ship. MMSI: 316011408.

Date/timePositionNaut miles runAvg speedWind from/ knotsBaromVisibWave heightAir tempDewpointWater temp
2017-Jan-20 19:33N 49°03' W 123°24'1919.2
2017-Jan-20 18:33N 49°13' W 123°48'3 3.4
2017-Jan-20 17:33N 49°12' W 123°53'1817.4
2017-Jan-20 16:33N 49°07' W 123°27'1412.4
2017-Jan-20 15:24N 49°00' W 123°08'1315.0
2017-Jan-20 14:33N 49°05' W 123°26'1717.2
2017-Jan-20 13:33N 49°13' W 123°49'4 3.5
2017-Jan-20 12:23N 49°10' W 123°53'0 0.0
2017-Jan-20 11:05N 49°10' W 123°53'0 0.0
2017-Jan-20 10:28N 49°10' W 123°53'0 0.0
2017-Jan-20 09:28N 49°10' W 123°53'0 0.2
2017-Jan-20 08:33N 49°10' W 123°53'1716.4
2017-Jan-20 07:32N 49°07' W 123°28'1514.7
2017-Jan-20 06:32N 49°00' W 123°08'1212.1
2017-Jan-20 05:33N 49°04' W 123°25'1919.0
2017-Jan-20 04:33N 49°13' W 123°51'1 0.6
2017-Jan-20 03:34N 49°13' W 123°51'1817.8
2017-Jan-20 02:33N 49°06' W 123°26'1312.6
2017-Jan-20 01:31N 49°00' W 123°08'1212.7
2017-Jan-20 00:33N 49°04' W 123°26'1817.9
2017-Jan-19 23:33N 49°13' W 123°49'2 1.8
2017-Jan-19 22:33N 49°13' W 123°52'1817.8
2017-Jan-19 21:33N 49°06' W 123°26'1313.3
2017-Jan-19 20:32N 49°00' W 123°08'1212.1
2017-Jan-19 19:33N 49°04' W 123°25'1818.3
2017-Jan-19 18:33N 49°13' W 123°50'2 1.6
2017-Jan-19 17:33N 49°13' W 123°52'1817.7
2017-Jan-19 16:32N 49°06' W 123°26'1310.9
2017-Jan-19 15:20N 49°00' W 123°08'1114.9
2017-Jan-19 14:33N 49°04' W 123°25'1918.2
2017-Jan-19 13:33N 49°13' W 123°49'4 3.4
2017-Jan-19 12:16N 49°10' W 123°53'0 0.0
2017-Jan-19 11:16N 49°10' W 123°53'0 0.0
2017-Jan-19 10:28N 49°10' W 123°53'0 0.0
2017-Jan-19 09:27N 49°10' W 123°53'0 0.5
2017-Jan-19 08:33N 49°10' W 123°53'1717.0
2017-Jan-19 07:33N 49°07' W 123°28'1514.4
2017-Jan-19 06:33N 49°00' W 123°08'1212.3
2017-Jan-19 05:34N 49°04' W 123°26'1818.4
2017-Jan-19 04:33N 49°14' W 123°50'1 1.5
2017-Jan-19 03:33N 49°13' W 123°52'1817.9
2017-Jan-19 02:33N 49°06' W 123°26'1312.9
2017-Jan-19 01:32N 49°00' W 123°08'1212.5
2017-Jan-19 00:33N 49°04' W 123°26'1817.9
2017-Jan-18 23:33N 49°13' W 123°49'3 2.9
2017-Jan-18 22:33N 49°11' W 123°53'1817.9
2017-Jan-18 21:33N 49°06' W 123°27'1411.6
2017-Jan-18 20:22N 49°00' W 123°08'1315.7
2017-Jan-18 19:34N 49°04' W 123°26'1818.0
2017-Jan-18 18:34N 49°13' W 123°51'0 0.4
2017-Jan-18 17:33N 49°13' W 123°51'1817.9
2017-Jan-18 16:33N 49°06' W 123°26'1312.0
2017-Jan-18 15:27N 49°00' W 123°08'1213.7
2017-Jan-18 14:33N 49°04' W 123°26'1818.1
2017-Jan-18 13:33N 49°13' W 123°50'4 3.7
2017-Jan-18 12:33N 49°10' W 123°53'0 0.0
2017-Jan-18 11:33N 49°10' W 123°53'0 0.0
2017-Jan-18 10:32N 49°10' W 123°53'0 0.0
2017-Jan-18 09:32N 49°10' W 123°53'1 1.0
2017-Jan-18 08:34N 49°11' W 123°53'1918.5
2017-Jan-18 07:33N 49°06' W 123°26'1313.0
2017-Jan-18 06:33N 49°00' W 123°08'1313.2
2017-Jan-18 05:33N 49°05' W 123°27'1818.2
2017-Jan-18 04:33N 49°11' W 123°53'1 1.3
2017-Jan-18 03:33N 49°12' W 123°52'1818.3
2017-Jan-18 02:33N 49°06' W 123°26'1313.1
2017-Jan-18 01:33N 49°00' W 123°08'1312.7
2017-Jan-18 00:33N 49°04' W 123°26'1818.4
2017-Jan-17 23:33N 49°13' W 123°51'2 1.6
2017-Jan-17 22:33N 49°12' W 123°53'1918.6
2017-Jan-17 21:32N 49°06' W 123°25'1312.8
2017-Jan-17 20:32N 49°00' W 123°08'1212.3
2017-Jan-17 19:33N 49°04' W 123°26'1918.5
2017-Jan-17 18:33N 49°13' W 123°50'1 0.6
2017-Jan-17 17:33N 49°13' W 123°51'1817.9
2017-Jan-17 16:33N 49°06' W 123°26'1312.1
2017-Jan-17 15:29N 49°00' W 123°08'1112.4
2017-Jan-17 14:33N 49°03' W 123°25'1818.2
2017-Jan-17 13:33N 49°13' W 123°49'4 2.2
2017-Jan-17 11:28N 49°10' W 123°53'0 0.0
2017-Jan-17 10:28N 49°10' W 123°53'2 0.9
2017-Jan-17 08:33N 49°11' W 123°53'1817.7
2017-Jan-17 07:33N 49°07' W 123°27'1414.1
2017-Jan-17 06:33N 49°00' W 123°08'1212.0
2017-Jan-17 05:33N 49°03' W 123°26'1818.4
2017-Jan-17 04:33N 49°13' W 123°50'1 1.5
2017-Jan-17 03:33N 49°13' W 123°52'1817.9
2017-Jan-17 02:33N 49°06' W 123°26'1313.4
2017-Jan-17 01:33N 49°00' W 123°08'1212.0
2017-Jan-17 00:33N 49°04' W 123°25'1818.0
2017-Jan-16 23:33N 49°13' W 123°49'3 3.5
2017-Jan-16 22:33N 49°11' W 123°53'1817.5
2017-Jan-16 21:33N 49°06' W 123°27'1411.9
2017-Jan-16 20:22N 49°00' W 123°08'1215.3
2017-Jan-16 19:33N 49°04' W 123°26'1918.4
2017-Jan-16 18:33N 49°13' W 123°50'0 0.4
2017-Jan-16 17:32N 49°13' W 123°51'1818.3
2017-Jan-16 16:32N 49°06' W 123°25'1312.8
2017-Jan-16 15:32N 49°00' W 123°08'1111.4
2017-Jan-16 14:33N 49°04' W 123°24'1918.6
2017-Jan-16 13:33N 49°13' W 123°49'3 0.7
2017-Jan-16 08:33N 49°11' W 123°53'1717.2
2017-Jan-16 07:33N 49°07' W 123°28'1414.5
2017-Jan-16 06:33N 49°00' W 123°08'1111.4
2017-Jan-16 05:33N 49°04' W 123°25'2018.0
2017-Jan-16 04:28N 49°13' W 123°51'1 1.1
2017-Jan-16 03:28N 49°13' W 123°49'1717.9
2017-Jan-16 02:33N 49°06' W 123°26'1313.4
2017-Jan-16 01:33N 49°00' W 123°08'1312.5
2017-Jan-16 00:33N 49°04' W 123°26'1818.0
2017-Jan-15 23:33N 49°13' W 123°50'2 1.6
2017-Jan-15 22:25N 49°13' W 123°48'1618.4
2017-Jan-15 21:33N 49°06' W 123°26'1313.1
2017-Jan-15 20:33N 49°00' W 123°08'1312.7
2017-Jan-15 19:33N 49°04' W 123°26'1918.8
2017-Jan-15 18:32N 49°13' W 123°53'1 0.1
2017-Jan-15 03:26N 49°12' W 123°53'1718.9
2017-Jan-15 02:30N 49°06' W 123°28'1415.1
2017-Jan-15 01:33N 49°00' W 123°08'1211.9
2017-Jan-15 00:33N 49°04' W 123°25'2017.6
2017-Jan-14 23:25N 49°12' W 123°53'0 0.5
2017-Jan-14 22:29N 49°12' W 123°53'1718.5
2017-Jan-14 21:33N 49°07' W 123°28'1414.6
2017-Jan-14 20:33N 49°00' W 123°08'1111.2
2017-Jan-14 19:34N 49°03' W 123°24'2018.8
2017-Jan-14 18:30N 49°12' W 123°52'1 1.0
2017-Jan-14 17:34N 49°12' W 123°53'1818.1
2017-Jan-14 16:33N 49°06' W 123°27'1413.8
2017-Jan-14 15:33N 49°00' W 123°08'1111.2
2017-Jan-14 14:33N 49°04' W 123°24'2117.8
2017-Jan-14 13:24N 49°12' W 123°53'0 0.0
2017-Jan-14 08:28N 49°12' W 123°53'1819.1
2017-Jan-14 07:33N 49°06' W 123°28'1414.3
2017-Jan-14 06:33N 49°00' W 123°08'1111.1
2017-Jan-14 05:33N 49°03' W 123°24'1918.9
2017-Jan-14 04:33N 49°13' W 123°49'1 0.9
2017-Jan-14 03:25N 49°13' W 123°48'2 0.6
2017-Jan-13 23:33N 49°13' W 123°51'1 1.4
2017-Jan-13 22:33N 49°12' W 123°53'1918.6
2017-Jan-13 21:33N 49°06' W 123°26'1313.1
2017-Jan-13 20:33N 49°00' W 123°08'1110.9
2017-Jan-13 19:33N 49°03' W 123°24'2118.5
2017-Jan-13 18:25N 49°12' W 123°53'0 0.4
2017-Jan-13 17:33N 49°12' W 123°53'1818.1
2017-Jan-13 16:33N 49°06' W 123°27'1413.9
2017-Jan-13 15:33N 49°00' W 123°08'1212.2
2017-Jan-13 14:33N 49°04' W 123°26'2018.3
2017-Jan-13 13:29N 49°13' W 123°52'2 0.4
2017-Jan-13 08:27N 49°11' W 123°53'1618.3
2017-Jan-13 07:33N 49°07' W 123°29'1515.4
2017-Jan-13 06:33N 49°00' W 123°08'1312.2
2017-Jan-13 05:32N 49°04' W 123°26'17 8.0
2017-Jan-13 03:26N 49°13' W 123°48'1718.8
2017-Jan-13 02:33N 49°06' W 123°25'1312.5
2017-Jan-13 01:33N 49°00' W 123°08'1211.9
2017-Jan-13 00:33N 49°04' W 123°25'1919.1
2017-Jan-12 23:33N 49°13' W 123°50'2 2.5
2017-Jan-12 22:34N 49°11' W 123°53'1817.3
2017-Jan-12 21:32N 49°06' W 123°27'1414.3
2017-Jan-12 20:33N 49°00' W 123°08'1111.4
2017-Jan-12 19:33N 49°04' W 123°25'1919.3
2017-Jan-12 18:33N 49°13' W 123°50'2 2.2
2017-Jan-12 17:33N 49°12' W 123°53'1918.5
2017-Jan-12 16:33N 49°06' W 123°26'1313.3
2017-Jan-12 15:33N 49°00' W 123°08'1111.3
2017-Jan-12 14:33N 49°03' W 123°25'1918.8
2017-Jan-12 13:33N 49°13' W 123°49'4 4.4
2017-Jan-12 12:33N 49°10' W 123°53'0 0.0
2017-Jan-12 11:33N 49°10' W 123°53'0 0.1
2017-Jan-12 08:33N 49°10' W 123°53'1616.3
2017-Jan-12 07:33N 49°07' W 123°29'1515.1
2017-Jan-12 06:33N 49°00' W 123°08'1111.2
2017-Jan-12 05:34N 49°03' W 123°24'1919.2
2017-Jan-12 04:34N 49°13' W 123°50'1 0.6
2017-Jan-12 03:32N 49°13' W 123°50'1717.8
2017-Jan-12 02:34N 49°06' W 123°26'1313.1
2017-Jan-12 01:33N 49°00' W 123°08'1211.7
2017-Jan-12 00:33N 49°04' W 123°25'1918.7
2017-Jan-11 23:33N 49°13' W 123°50'3 2.8
2017-Jan-11 22:33N 49°12' W 123°53'1817.6
2017-Jan-11 21:32N 49°07' W 123°27'1414.3
2017-Jan-11 20:34N 49°00' W 123°08'1111.4
2017-Jan-11 19:33N 49°04' W 123°24'1918.6
2017-Jan-11 18:33N 49°13' W 123°50'2 2.4
2017-Jan-11 17:33N 49°12' W 123°53'1818.3
2017-Jan-11 16:33N 49°06' W 123°26'1313.5
2017-Jan-11 15:33N 49°00' W 123°08'1211.9
2017-Jan-11 14:31N 49°03' W 123°26'1818.9
2017-Jan-11 13:33N 49°13' W 123°50'4 3.6
2017-Jan-11 12:31N 49°10' W 123°53'0 0.0
2017-Jan-11 11:31N 49°10' W 123°53'0 0.0
2017-Jan-11 10:31N 49°10' W 123°53'1 0.3
2017-Jan-11 08:31N 49°10' W 123°53'1717.6
2017-Jan-11 07:32N 49°07' W 123°27'1412.6
2017-Jan-11 06:24N 49°00' W 123°08'1214.1
2017-Jan-11 05:33N 49°04' W 123°26'1918.3
2017-Jan-11 04:31N 49°13' W 123°51'1 1.0
2017-Jan-11 03:27N 49°13' W 123°50'1719.2
2017-Jan-11 02:33N 49°07' W 123°25'1311.9
2017-Jan-11 01:28N 49°00' W 123°08'1213.2
2017-Jan-11 00:33N 49°04' W 123°26'1918.0
2017-Jan-10 23:31N 49°13' W 123°51'2 1.9
2017-Jan-10 22:34N 49°12' W 123°53'1818.0
2017-Jan-10 21:32N 49°06' W 123°26'1413.8
2017-Jan-10 20:33N 49°00' W 123°08'  

Dump ship's entire track history